Terminal Aerodrome Forecast
Issued by NWS

Home | Current Version | Previous Version | Text Only | Print | Product List | Glossary On
Versions: 1 2 3 4 5 6 7 8 9 10 11 12 13
000
FTUS45 KABQ 261700
TAFTCC
TAF
KTCC 261729Z 2618/2718 09006KT P6SM BKN250
     FM262100 13006KT P6SM BKN250
     FM270300 24006KT P6SM SCT250
     FM271600 23011KT P6SM FEW250=

USA.gov is the U.S. government's official web portal to all federal, state and local government web resources and services.